Time;durP1;ratioP1;P1;durP2;ratioP2;P2;SDS_P1;SDS_P2;PMS_P1;PMS_P2;Temp;Humidity;BMP_temperature;BMP_pressure;BME280_temperature;BME280_humidity;BME280_pressure;Samples;Min_cycle;Max_cycle;Signal;HPM_P1;HPM_P2
2021/12/11 00:01:06;;;;;;;31.70;15.98;;;;;;;1.73;89.68;100479.69;1994674;29;20047;-61
2021/12/11 00:02:19;;;;;;;27.30;14.85;;;;;;;1.73;89.52;100490.22;1993995;29;44721;-60
2021/12/11 00:03:31;;;;;;;27.95;14.77;;;;;;;1.73;89.94;100477.03;1993317;29;43717;-60
2021/12/11 00:04:40;;;;;;;31.90;16.15;;;;;;;1.73;89.44;100484.09;1993581;29;45703;-60
2021/12/11 00:05:49;;;;;;;29.27;15.38;;;;;;;1.73;89.71;100489.34;1994574;29;32698;-61
2021/12/11 00:06:53;;;;;;;31.98;16.45;;;;;;;1.71;89.42;100489.34;1994097;29;45043;-60
2021/12/11 00:07:56;;;;;;;27.15;15.02;;;;;;;1.72;89.92;100493.72;1994456;29;44562;-61
2021/12/11 00:09:10;;;;;;;30.25;15.32;;;;;;;1.71;89.47;100491.97;1993572;29;44075;-63
2021/12/11 00:10:33;;;;;;;23.02;13.85;;;;;;;1.70;89.60;100492.84;1992092;29;20170;-62
2021/12/11 00:11:41;;;;;;;25.33;13.77;;;;;;;1.72;89.46;100501.66;1993547;29;43892;-62
2021/12/11 00:12:54;;;;;;;23.92;13.52;;;;;;;1.70;90.03;100498.13;1985938;29;46361;-62
2021/12/11 00:13:59;;;;;;;32.75;16.55;;;;;;;1.69;90.01;100494.59;1988793;29;27330;-62
2021/12/11 00:15:14;;;;;;;29.60;15.90;;;;;;;1.71;89.78;100502.53;1993646;29;43583;-62
2021/12/11 00:16:22;;;;;;;28.60;15.65;;;;;;;1.72;89.73;100501.66;1994082;29;44457;-61
2021/12/11 00:17:31;;;;;;;31.65;16.08;;;;;;;1.71;89.99;100506.06;1993754;29;45476;-61
2021/12/11 00:18:33;;;;;;;35.47;16.60;;;;;;;1.72;89.36;100504.28;1993915;29;44948;-61
2021/12/11 00:19:39;;;;;;;28.83;16.55;;;;;;;1.71;89.48;100505.19;1999910;29;44829;-62
2021/12/11 00:20:56;;;;;;;27.38;15.82;;;;;;;1.72;89.27;100512.19;2001670;29;44059;-62
2021/12/11 00:22:14;;;;;;;34.47;16.73;;;;;;;1.72;89.27;100512.19;2001031;29;44829;-61
2021/12/11 00:23:56;;;;;;;26.70;15.20;;;;;;;1.70;89.23;100517.47;1997942;29;32677;-62
2021/12/11 00:25:09;;;;;;;33.33;17.13;;;;;;;1.71;89.82;100513.09;1995200;29;44432;-61
2021/12/11 00:26:12;;;;;;;30.27;14.90;;;;;;;1.71;89.76;100513.09;2001956;29;37399;-62
2021/12/11 00:27:23;;;;;;;33.83;16.70;;;;;;;1.72;89.94;100514.84;2002328;29;44355;-62
2021/12/11 00:28:25;;;;;;;35.25;18.10;;;;;;;1.73;89.25;100518.38;2001726;29;25038;-62
2021/12/11 00:29:28;;;;;;;31.67;17.13;;;;;;;1.71;89.46;100521.88;2001918;29;43180;-62
2021/12/11 00:30:35;;;;;;;32.72;17.02;;;;;;;1.72;89.21;100512.19;2001516;29;43915;-62
2021/12/11 00:31:44;;;;;;;30.75;16.33;;;;;;;1.71;89.35;100521.88;2001810;29;45130;-61
2021/12/11 00:32:46;;;;;;;27.35;14.38;;;;;;;1.72;89.98;100520.13;2001404;29;45581;-62
2021/12/11 00:33:50;;;;;;;28.35;16.15;;;;;;;1.70;89.83;100522.75;2001657;29;45134;-61
2021/12/11 00:34:59;;;;;;;27.70;14.68;;;;;;;1.70;89.51;100529.78;2001684;29;42307;-62
2021/12/11 00:36:09;;;;;;;27.30;15.93;;;;;;;1.71;90.20;100528.94;1993321;29;43981;-61
2021/12/11 00:37:14;;;;;;;31.63;16.80;;;;;;;1.70;89.29;100529.78;1986694;29;44794;-62
2021/12/11 00:38:23;;;;;;;31.80;17.40;;;;;;;1.70;89.74;100535.94;1995025;29;45245;-61
2021/12/11 00:39:26;;;;;;;31.25;17.40;;;;;;;1.71;89.75;100539.50;2001483;29;46344;-62
2021/12/11 00:40:30;;;;;;;32.03;15.77;;;;;;;1.70;89.67;100540.34;2002701;29;20058;-62
2021/12/11 00:41:33;;;;;;;28.80;14.52;;;;;;;1.67;89.94;100538.59;2001634;29;42926;-62
2021/12/11 00:42:36;;;;;;;24.08;13.20;;;;;;;1.68;89.92;100542.09;2001525;29;40871;-62
2021/12/11 00:43:40;;;;;;;25.75;14.95;;;;;;;1.66;90.09;100546.47;2001592;29;43227;-62
2021/12/11 00:44:53;;;;;;;30.45;14.75;;;;;;;1.65;89.66;100548.25;2002081;29;29017;-61
2021/12/11 00:45:58;;;;;;;23.58;13.20;;;;;;;1.65;89.63;100545.63;2001412;29;44547;-62
2021/12/11 00:47:26;;;;;;;28.02;15.15;;;;;;;1.63;90.05;100544.69;2000925;29;44598;-62
2021/12/11 00:48:31;;;;;;;31.98;16.50;;;;;;;1.65;90.11;100542.06;2001169;29;37283;-62
2021/12/11 00:49:32;;;;;;;30.52;16.23;;;;;;;1.65;89.92;100552.63;2001224;29;45491;-61
2021/12/11 00:50:44;;;;;;;30.67;15.80;;;;;;;1.63;90.29;100549.97;2000715;29;46174;-62
2021/12/11 00:51:54;;;;;;;30.40;16.80;;;;;;;1.65;89.81;100549.97;2001700;29;43421;-62
2021/12/11 00:53:13;;;;;;;26.55;14.48;;;;;;;1.64;90.03;100556.16;2000379;29;43209;-61
2021/12/11 00:54:15;;;;;;;29.77;14.68;;;;;;;1.63;90.34;100565.78;2000808;29;43167;-61
2021/12/11 00:55:29;;;;;;;23.70;13.88;;;;;;;1.64;89.68;100567.59;2001704;29;44667;-61
2021/12/11 00:56:37;;;;;;;23.73;13.25;;;;;;;1.64;90.52;100558.78;2001494;29;33206;-61
2021/12/11 00:57:39;;;;;;;28.88;14.30;;;;;;;1.64;90.05;100566.72;2001517;29;44479;-61
2021/12/11 00:58:47;;;;;;;32.20;15.30;;;;;;;1.64;90.60;100564.06;2001485;29;45545;-62
2021/12/11 01:00:01;;;;;;;24.70;14.50;;;;;;;1.60;90.51;100564.88;2001422;29;45597;-61
2021/12/11 01:01:06;;;;;;;29.73;13.30;;;;;;;1.60;90.48;100571.06;2001477;29;43558;-62
2021/12/11 01:02:13;;;;;;;23.25;13.75;;;;;;;1.60;90.42;100579.00;2002505;29;20089;-62
2021/12/11 01:03:22;;;;;;;31.52;15.50;;;;;;;1.59;90.32;100573.69;2001664;29;43732;-62
2021/12/11 01:04:41;;;;;;;26.58;14.90;;;;;;;1.59;90.38;100574.56;2000731;29;45314;-62
2021/12/11 01:05:51;;;;;;;29.25;15.60;;;;;;;1.57;90.82;100575.44;1997894;29;45057;-62
2021/12/11 01:07:07;;;;;;;33.38;17.48;;;;;;;1.57;90.91;100575.44;1995709;29;43429;-61
2021/12/11 01:08:25;;;;;;;28.25;14.02;;;;;;;1.58;91.10;100585.09;2001252;29;45337;-61
2021/12/11 01:09:39;;;;;;;29.80;15.77;;;;;;;1.56;90.44;100579.81;2001615;29;45996;-61
2021/12/11 01:10:48;;;;;;;29.50;15.40;;;;;;;1.58;90.76;100582.47;2002313;29;20073;-62
2021/12/11 01:12:10;;;;;;;26.20;13.40;;;;;;;1.57;90.98;100586.00;2001545;29;42734;-62
2021/12/11 01:13:17;;;;;;;27.30;14.68;;;;;;;1.58;90.75;100579.84;2002154;29;22482;-62
2021/12/11 01:14:51;;;;;;;28.80;15.60;;;;;;;1.58;90.93;100588.66;1992778;29;44735;-61
2021/12/11 01:15:58;;;;;;;29.52;14.20;;;;;;;1.57;90.90;100592.16;1997100;29;39547;-62
2021/12/11 01:17:07;;;;;;;23.10;12.40;;;;;;;1.58;90.58;100596.56;2001148;29;45813;-61
2021/12/11 01:19:21;;;;;;;;;;;;;;;1.56;90.62;100602.69;2001806;29;31786;-61
2021/12/11 01:20:37;;;;;;;24.63;13.00;;;;;;;1.54;91.17;100605.31;2001243;29;45612;-60
2021/12/11 01:22:43;;;;;;;22.48;13.00;;;;;;;1.51;91.08;100608.81;2001138;29;43548;-62
2021/12/11 01:25:24;;;;;;;22.45;13.10;;;;;;;1.50;91.36;100619.34;2000715;29;44861;-61
2021/12/11 01:26:26;;;;;;;20.05;11.57;;;;;;;1.49;90.93;100625.47;1995406;29;45670;-61
2021/12/11 01:27:28;;;;;;;25.55;13.50;;;;;;;1.48;91.48;100629.88;1995136;29;29093;-61
2021/12/11 01:28:31;;;;;;;27.88;14.65;;;;;;;1.47;91.03;100632.50;2000807;29;45162;-61
2021/12/11 01:29:33;;;;;;;21.52;13.38;;;;;;;1.49;91.24;100636.03;2001355;29;44347;-61
2021/12/11 01:30:42;;;;;;;25.85;13.95;;;;;;;1.48;91.70;100634.28;2001692;29;34174;-61
2021/12/11 01:31:46;;;;;;;29.25;15.40;;;;;;;1.47;91.60;100627.22;2001449;29;45074;-62
2021/12/11 01:32:48;;;;;;;28.23;14.80;;;;;;;1.48;91.25;100635.16;2000632;29;45139;-61
2021/12/11 01:33:54;;;;;;;27.33;15.13;;;;;;;1.48;91.44;100635.16;2000257;29;44972;-61
2021/12/11 01:34:58;;;;;;;29.10;14.95;;;;;;;1.48;91.26;100637.81;2001321;29;44283;-62
2021/12/11 01:36:03;;;;;;;24.15;12.75;;;;;;;1.49;91.87;100642.22;2001743;29;31674;-61
2021/12/11 01:37:06;;;;;;;34.13;17.33;;;;;;;1.52;92.05;100644.88;2000645;29;43931;-61
2021/12/11 01:38:17;;;;;;;29.95;15.68;;;;;;;1.55;91.42;100646.66;2000243;29;44926;-61
2021/12/11 01:39:26;;;;;;;31.55;16.08;;;;;;;1.54;91.18;100655.44;2000758;29;43540;-61
2021/12/11 01:40:31;;;;;;;23.92;12.73;;;;;;;1.54;91.02;100650.16;2001041;29;45506;-61
2021/12/11 01:41:37;;;;;;;29.42;14.10;;;;;;;1.53;91.03;100649.28;2001364;29;46577;-61
2021/12/11 01:42:41;;;;;;;28.30;15.55;;;;;;;1.51;91.28;100648.38;2000589;29;43375;-61
2021/12/11 01:43:45;;;;;;;30.98;16.20;;;;;;;1.55;91.73;100653.72;1993024;29;43340;-61
2021/12/11 01:44:50;;;;;;;31.77;17.35;;;;;;;1.56;91.96;100647.53;1993923;29;31548;-61
2021/12/11 01:45:56;;;;;;;28.92;15.93;;;;;;;1.53;91.53;100638.72;2001405;29;44182;-61
2021/12/11 01:47:14;;;;;;;33.90;16.40;;;;;;;1.53;91.79;100633.47;2000551;29;46729;-61
2021/12/11 01:48:28;;;;;;;34.78;17.23;;;;;;;1.52;91.92;100629.03;2000637;29;42241;-61
2021/12/11 01:49:31;;;;;;;29.83;15.45;;;;;;;1.51;91.66;100624.66;2001005;29;45530;-61
2021/12/11 01:50:43;;;;;;;29.70;16.75;;;;;;;1.51;91.52;100624.66;2001374;29;32399;-61
2021/12/11 01:51:58;;;;;;;30.73;15.85;;;;;;;1.48;91.48;100632.53;2000980;29;45149;-61
2021/12/11 01:53:12;;;;;;;32.55;18.15;;;;;;;1.45;91.51;100635.13;2001771;29;20138;-61
2021/12/11 01:54:22;;;;;;;33.03;17.73;;;;;;;1.43;91.96;100636.00;2000475;29;42931;-61
2021/12/11 01:55:43;;;;;;;31.58;16.42;;;;;;;1.39;91.90;100640.34;2000783;29;45483;-61
2021/12/11 01:56:58;;;;;;;32.35;16.65;;;;;;;1.39;91.73;100634.22;2000233;29;46230;-61
2021/12/11 01:58:01;;;;;;;28.35;15.55;;;;;;;1.34;91.83;100640.31;2000082;29;46146;-61
2021/12/11 01:59:12;;;;;;;31.35;17.25;;;;;;;1.31;91.48;100642.03;1999873;29;45195;-59
2021/12/11 02:00:24;;;;;;;;;;;;;;;1.24;91.84;100641.09;2001000;29;43070;-61
2021/12/11 02:01:39;;;;;;;27.60;15.55;;;;;;;1.20;92.05;100649.81;2001195;29;43814;-61
2021/12/11 02:02:50;;;;;;;31.20;16.02;;;;;;;1.17;92.28;100649.81;2000353;29;46030;-61
2021/12/11 02:03:54;;;;;;;33.92;17.98;;;;;;;1.14;92.32;100648.00;2000338;29;44186;-61
2021/12/11 02:04:56;;;;;;;31.58;17.80;;;;;;;1.09;91.81;100646.19;2000940;29;45145;-61
2021/12/11 02:05:59;;;;;;;31.75;17.27;;;;;;;1.05;92.13;100644.41;2001621;29;43332;-61
2021/12/11 02:07:12;;;;;;;33.08;17.48;;;;;;;1.06;92.25;100647.06;2001260;29;31842;-60
2021/12/11 02:08:22;;;;;;;31.42;16.95;;;;;;;0.98;92.39;100646.06;2001273;29;30663;-61
2021/12/11 02:09:32;;;;;;;29.83;16.35;;;;;;;0.91;92.57;100654.78;2001118;29;44900;-61
2021/12/11 02:10:52;;;;;;;35.45;18.80;;;;;;;0.89;92.71;100657.41;2000725;29;45898;-60
2021/12/11 02:12:20;;;;;;;36.22;18.15;;;;;;;0.89;92.92;100664.44;2001159;29;44732;-62
2021/12/11 02:13:40;;;;;;;35.38;16.58;;;;;;;0.81;92.72;100656.44;2001017;29;45442;-61
2021/12/11 02:14:49;;;;;;;32.83;17.15;;;;;;;0.77;93.36;100662.50;2001275;29;36817;-61
2021/12/11 02:15:53;;;;;;;32.58;17.85;;;;;;;0.78;93.11;100673.97;2001265;29;44458;-61
2021/12/11 02:16:56;;;;;;;40.38;19.27;;;;;;;0.76;93.41;100669.53;2001063;29;44459;-59
2021/12/11 02:18:27;;;;;;;34.70;18.20;;;;;;;0.70;93.11;100674.75;2001174;29;46167;-61
2021/12/11 02:19:38;;;;;;;35.60;18.40;;;;;;;0.64;93.42;100673.78;1999815;29;45474;-61
2021/12/11 02:20:58;;;;;;;28.00;15.52;;;;;;;0.58;93.15;100682.47;2000666;29;46534;-61
2021/12/11 02:21:59;;;;;;;33.60;17.42;;;;;;;0.54;93.22;100680.69;2000769;29;33091;-60
2021/12/11 02:23:02;;;;;;;32.72;17.33;;;;;;;0.50;93.31;100685.03;2000135;29;44062;-61
2021/12/11 02:24:11;;;;;;;32.65;17.58;;;;;;;0.48;93.58;100696.38;2000693;29;44210;-60
2021/12/11 02:25:22;;;;;;;29.13;15.52;;;;;;;0.46;93.85;100700.75;2001227;29;39387;-61
2021/12/11 02:26:26;;;;;;;30.13;16.67;;;;;;;0.47;93.92;100697.25;2000170;29;44974;-61
2021/12/11 02:27:40;;;;;;;36.85;18.40;;;;;;;0.46;93.91;100708.66;2000746;29;44498;-61
2021/12/11 02:28:56;;;;;;;35.45;16.80;;;;;;;0.46;93.91;100700.75;2000281;29;44054;-61
2021/12/11 02:30:23;;;;;;;36.05;17.67;;;;;;;0.47;94.10;100707.81;2000341;29;46962;-61
2021/12/11 02:31:42;;;;;;;37.70;17.42;;;;;;;0.47;93.93;100707.81;2001396;29;44002;-61
2021/12/11 02:33:16;;;;;;;32.35;16.10;;;;;;;0.48;93.85;100712.19;2000714;29;44493;-60
2021/12/11 02:34:52;;;;;;;33.03;15.95;;;;;;;0.52;94.12;100716.63;1999986;29;46033;-61
2021/12/11 02:36:28;;;;;;;32.38;17.45;;;;;;;0.52;94.15;100719.25;2000818;29;45087;-61
2021/12/11 02:37:49;;;;;;;30.60;16.30;;;;;;;0.54;93.78;100731.59;2000505;29;43814;-61
2021/12/11 02:39:07;;;;;;;36.28;17.77;;;;;;;0.56;93.92;100732.50;2000267;29;42619;-61
2021/12/11 02:40:27;;;;;;;34.15;17.17;;;;;;;0.60;93.95;100737.84;2000898;29;44107;-61
2021/12/11 02:41:49;;;;;;;29.52;15.40;;;;;;;0.61;93.71;100737.84;2000509;29;45981;-62
2021/12/11 02:43:09;;;;;;;32.92;16.38;;;;;;;0.61;93.80;100740.50;2000688;29;45476;-61
2021/12/11 02:44:37;;;;;;;33.05;16.40;;;;;;;0.66;93.69;100741.41;2000239;29;46619;-61
2021/12/11 02:46:03;;;;;;;27.20;15.82;;;;;;;0.67;93.61;100747.59;2000572;29;44549;-61
2021/12/11 02:47:29;;;;;;;26.55;14.02;;;;;;;0.67;93.35;100740.56;2000295;29;45753;-61
2021/12/11 02:48:42;;;;;;;31.85;16.02;;;;;;;0.68;93.43;100737.09;2000540;29;46212;-62
2021/12/11 02:50:01;;;;;;;30.42;15.95;;;;;;;0.69;93.06;100743.22;2000886;29;44051;-61
2021/12/11 02:51:36;;;;;;;28.67;15.02;;;;;;;0.68;93.29;100739.72;2000951;29;46484;-60
2021/12/11 02:52:48;;;;;;;30.00;16.08;;;;;;;0.70;93.60;100745.88;2000619;29;42498;-61
2021/12/11 02:54:01;;;;;;;31.73;16.20;;;;;;;0.72;93.57;100743.28;2000251;29;45312;-61
2021/12/11 02:55:12;;;;;;;29.25;15.30;;;;;;;0.72;93.23;100736.25;2000849;29;44765;-61
2021/12/11 02:56:24;;;;;;;30.05;15.88;;;;;;;0.73;93.25;100748.53;2000594;29;45296;-61
2021/12/11 02:57:45;;;;;;;28.25;15.73;;;;;;;0.75;93.00;100751.19;2001032;29;45247;-61
2021/12/11 02:58:52;;;;;;;;;;;;;;;0.75;93.23;100746.84;2000090;29;42491;-61
2021/12/11 02:59:54;;;;;;;28.42;14.82;;;;;;;0.76;93.29;100753.88;2000747;29;44202;-61
2021/12/11 03:01:04;;;;;;;36.42;17.95;;;;;;;0.80;93.55;100759.19;2000888;29;44837;-61
2021/12/11 03:02:19;;;;;;;34.40;15.70;;;;;;;0.77;93.50;100754.75;2001331;29;20130;-61
2021/12/11 03:03:33;;;;;;;34.30;16.95;;;;;;;0.78;93.43;100761.78;2001321;29;20942;-60
2021/12/11 03:04:44;;;;;;;32.30;17.88;;;;;;;0.78;93.08;100755.66;2001389;29;20530;-61
2021/12/11 03:06:27;;;;;;;31.17;17.23;;;;;;;0.76;93.25;100751.22;2001096;29;20054;-61
2021/12/11 03:07:36;;;;;;;32.63;16.85;;;;;;;0.77;93.11;100749.47;1991417;29;47853;-61
2021/12/11 03:08:40;;;;;;;30.73;17.15;;;;;;;0.76;93.46;100753.88;1998856;29;44272;-61
2021/12/11 03:09:55;;;;;;;37.17;18.48;;;;;;;0.78;93.71;100755.66;2002040;29;20054;-61
2021/12/11 03:11:04;;;;;;;32.63;17.65;;;;;;;0.76;93.44;100759.13;2003685;29;20042;-61
2021/12/11 03:12:11;;;;;;;31.35;17.55;;;;;;;0.74;93.25;100763.50;2003266;29;42933;-61
2021/12/11 03:13:13;;;;;;;30.95;17.38;;;;;;;0.72;93.11;100767.00;1995414;29;38096;-61
2021/12/11 03:14:18;;;;;;;32.22;19.17;;;;;;;0.72;93.64;100765.22;1987445;29;44714;-60
2021/12/11 03:15:20;;;;;;;33.65;17.02;;;;;;;0.70;93.06;100766.97;1995618;29;45392;-61
2021/12/11 03:16:29;;;;;;;32.60;17.70;;;;;;;0.70;93.59;100779.22;2003255;29;34647;-61
2021/12/11 03:17:31;;;;;;;31.17;17.83;;;;;;;0.67;93.49;100771.31;2003158;29;44118;-61
2021/12/11 03:18:32;;;;;;;33.83;18.40;;;;;;;0.65;93.51;100773.91;2003017;29;46426;-61
2021/12/11 03:19:39;;;;;;;33.05;17.70;;;;;;;0.63;93.65;100780.91;2002658;29;42140;-61
2021/12/11 03:20:44;;;;;;;30.92;17.77;;;;;;;0.62;93.60;100776.50;2002875;29;45300;-60
2021/12/11 03:21:48;;;;;;;33.38;17.80;;;;;;;0.64;94.15;100784.44;2003111;29;45973;-61
2021/12/11 03:22:51;;;;;;;30.83;16.65;;;;;;;0.61;93.52;100790.53;2003074;29;45161;-61
2021/12/11 03:23:55;;;;;;;34.38;17.70;;;;;;;0.62;93.72;100791.44;2002718;29;44080;-61
2021/12/11 03:24:58;;;;;;;35.45;18.42;;;;;;;0.63;94.13;100788.81;2003326;29;44631;-61
2021/12/11 03:26:03;;;;;;;37.40;18.88;;;;;;;0.62;94.07;100794.94;2002793;29;42769;-61
2021/12/11 03:27:06;;;;;;;35.22;19.20;;;;;;;0.62;93.61;100792.31;2002203;29;35072;-61
2021/12/11 03:28:10;;;;;;;35.17;19.83;;;;;;;0.64;94.17;100790.56;1995503;29;44854;-61
2021/12/11 03:29:13;;;;;;;31.33;17.95;;;;;;;0.64;93.71;100789.69;2002696;29;45572;-60
2021/12/11 03:30:24;;;;;;;39.85;19.30;;;;;;;0.63;93.62;100791.44;2002783;29;45591;-60
2021/12/11 03:31:25;;;;;;;;;;;;;;;0.65;93.94;100799.38;2003561;29;44288;-61
2021/12/11 03:32:27;;;;;;;38.15;19.30;;;;;;;0.66;93.93;100799.38;2003210;29;41675;-61
2021/12/11 03:33:39;;;;;;;32.42;17.27;;;;;;;0.65;93.45;100802.91;1996056;29;20102;-60
2021/12/11 03:34:43;;;;;;;32.55;18.20;;;;;;;0.65;93.52;100802.03;1996464;29;43078;-60
2021/12/11 03:35:46;;;;;;;37.88;20.00;;;;;;;0.66;93.96;100802.00;1994747;29;46123;-60
2021/12/11 03:36:49;;;;;;;33.38;18.00;;;;;;;0.66;94.02;100804.66;1995376;29;45288;-60
2021/12/11 03:37:51;;;;;;;31.05;16.77;;;;;;;0.67;93.86;100805.56;2003108;29;46458;-60
2021/12/11 03:38:59;;;;;;;38.33;18.85;;;;;;;0.67;94.18;100801.16;2003289;29;32119;-61
2021/12/11 03:40:04;;;;;;;37.20;18.67;;;;;;;0.67;93.97;100811.72;2003194;29;45719;-61
2021/12/11 03:41:06;;;;;;;36.72;17.85;;;;;;;0.68;93.75;100809.94;2003327;29;44473;-60
2021/12/11 03:42:17;;;;;;;34.50;18.42;;;;;;;0.70;94.01;100802.94;2003262;29;44226;-60
2021/12/11 03:43:21;;;;;;;34.25;18.48;;;;;;;0.69;93.62;100807.34;2003257;29;44277;-59
2021/12/11 03:44:28;;;;;;;39.58;19.33;;;;;;;0.70;93.79;100816.13;2002869;29;44732;-60
2021/12/11 03:45:34;;;;;;;34.60;18.10;;;;;;;0.70;94.07;100805.59;2003127;29;45815;-60
2021/12/11 03:46:37;;;;;;;32.55;16.58;;;;;;;0.69;93.93;100815.25;2002995;29;43769;-60
2021/12/11 03:47:52;;;;;;;32.55;17.25;;;;;;;0.68;93.90;100809.94;2003676;29;45198;-61
2021/12/11 03:49:03;;;;;;;32.63;16.52;;;;;;;0.67;93.26;100813.47;2002888;29;45382;-61
2021/12/11 03:50:12;;;;;;;33.28;16.70;;;;;;;0.67;93.64;100810.81;2002588;29;44485;-60
2021/12/11 03:51:22;;;;;;;30.67;15.68;;;;;;;0.65;93.65;100812.56;2001060;29;20037;-60
2021/12/11 03:52:25;;;;;;;28.30;15.60;;;;;;;0.65;93.55;100813.44;1996835;29;45294;-59
2021/12/11 03:53:28;;;;;;;34.20;18.20;;;;;;;0.63;93.98;100814.25;2002921;29;43523;-60
2021/12/11 03:54:33;;;;;;;30.23;16.52;;;;;;;0.64;93.74;100824.81;2002624;29;44343;-61
2021/12/11 03:55:41;;;;;;;32.75;17.65;;;;;;;0.62;93.83;100817.78;2002420;29;44663;-62
2021/12/11 03:56:43;;;;;;;32.72;17.05;;;;;;;0.61;93.78;100822.16;2001053;29;44179;-60
2021/12/11 03:57:45;;;;;;;34.20;17.17;;;;;;;0.61;93.93;100816.91;1995454;29;40992;-60
2021/12/11 03:58:51;;;;;;;35.15;16.48;;;;;;;0.57;94.08;100821.22;2003103;29;44031;-60
2021/12/11 03:59:55;;;;;;;27.13;14.60;;;;;;;0.56;93.71;100818.56;2003234;29;45882;-61
2021/12/11 04:01:13;;;;;;;25.85;15.73;;;;;;;0.53;93.97;100813.25;2003125;29;44712;-61
2021/12/11 04:02:22;;;;;;;30.33;16.13;;;;;;;0.50;93.90;100821.09;2002838;29;45759;-61
2021/12/11 04:03:30;;;;;;;35.85;17.95;;;;;;;0.44;93.73;100823.63;2003063;29;45462;-60
2021/12/11 04:04:41;;;;;;;31.15;17.05;;;;;;;0.38;93.99;100824.41;2002669;29;44780;-61
2021/12/11 04:05:46;;;;;;;29.80;16.00;;;;;;;0.31;94.14;100827.81;2003469;29;20051;-61
2021/12/11 04:06:51;;;;;;;31.60;16.58;;;;;;;0.23;93.91;100822.38;2001025;29;45796;-61
2021/12/11 04:07:52;;;;;;;34.95;17.30;;;;;;;0.17;93.69;100830.19;1994967;29;44652;-61
2021/12/11 04:08:59;;;;;;;32.92;19.00;;;;;;;0.15;93.92;100834.56;2003565;29;20064;-61
2021/12/11 04:10:04;;;;;;;34.03;17.08;;;;;;;0.17;94.49;100833.72;2002407;29;42135;-61
2021/12/11 04:11:08;;;;;;;36.80;19.20;;;;;;;0.12;94.69;100831.84;2002569;29;45788;-61
2021/12/11 04:12:11;;;;;;;31.27;16.67;;;;;;;0.07;94.31;100833.50;2003041;29;41704;-61
2021/12/11 04:13:14;;;;;;;35.30;18.98;;;;;;;0.03;93.92;100836.97;2002555;29;43151;-61
2021/12/11 04:14:22;;;;;;;28.92;16.67;;;;;;;-0.06;94.03;100837.66;2001582;29;44064;-61
2021/12/11 04:15:25;;;;;;;33.28;17.80;;;;;;;-0.10;94.39;100847.25;1996127;29;44699;-60
2021/12/11 04:16:28;;;;;;;39.05;20.00;;;;;;;-0.15;94.38;100842.75;2002907;29;45927;-61
2021/12/11 04:17:31;;;;;;;35.08;17.77;;;;;;;-0.23;94.14;100850.53;2002873;29;46151;-61
2021/12/11 04:18:33;;;;;;;31.75;16.52;;;;;;;-0.26;94.41;100846.06;2002639;29;45413;-61
2021/12/11 04:19:35;;;;;;;36.28;18.45;;;;;;;-0.23;94.52;100845.25;2002124;29;44076;-61
2021/12/11 04:20:42;;;;;;;34.03;18.08;;;;;;;-0.25;95.03;100852.22;2003204;29;35951;-60
2021/12/11 04:21:46;;;;;;;31.20;16.13;;;;;;;-0.29;94.42;100851.25;2001139;29;45318;-61
2021/12/11 04:22:48;;;;;;;35.80;18.10;;;;;;;-0.32;94.61;100855.56;2001440;29;43998;-61
2021/12/11 04:23:50;;;;;;;36.47;18.65;;;;;;;-0.34;95.15;100863.47;2001702;29;43523;-61
2021/12/11 04:24:53;;;;;;;34.28;18.20;;;;;;;-0.37;94.97;100862.50;2001695;29;44287;-61
2021/12/11 04:25:58;;;;;;;35.35;18.67;;;;;;;-0.40;95.55;100861.56;2001858;29;44820;-60
2021/12/11 04:27:05;;;;;;;33.33;18.48;;;;;;;-0.46;95.29;100871.97;2001930;29;31068;-61
2021/12/11 04:28:07;;;;;;;30.95;17.85;;;;;;;-0.50;95.17;100871.88;2001390;29;46109;-61
2021/12/11 04:29:09;;;;;;;32.88;18.30;;;;;;;-0.56;95.20;100872.63;2001503;29;44853;-61
2021/12/11 04:30:17;;;;;;;35.83;18.10;;;;;;;-0.62;94.48;100877.78;1993162;29;43527;-61
2021/12/11 04:31:24;;;;;;;40.55;19.08;;;;;;;-0.62;95.42;100883.91;1994472;29;44439;-61
2021/12/11 04:32:28;;;;;;;32.53;17.65;;;;;;;-0.64;95.50;100882.13;2001630;29;43943;-61
2021/12/11 04:33:38;;;;;;;37.45;18.80;;;;;;;-0.64;95.12;100884.75;2001462;29;46547;-61
2021/12/11 04:34:40;;;;;;;32.67;18.25;;;;;;;-0.68;95.36;100888.13;2001923;29;30682;-61
2021/12/11 04:35:43;;;;;;;34.35;17.30;;;;;;;-0.70;95.03;100890.75;2001794;29;45139;-61
2021/12/11 04:37:09;;;;;;;33.58;17.00;;;;;;;-0.72;94.93;100892.44;2000969;29;46323;-61
2021/12/11 04:38:14;;;;;;;28.35;14.65;;;;;;;-0.75;94.67;100891.47;2001067;29;43388;-61
2021/12/11 04:39:19;;;;;;;30.60;16.60;;;;;;;-0.75;94.97;100902.00;2001557;29;45708;-61
2021/12/11 04:40:29;;;;;;;26.73;14.90;;;;;;;-0.78;95.64;100906.34;2001134;29;46055;-61
2021/12/11 04:41:39;;;;;;;30.70;14.95;;;;;;;-0.77;96.00;100908.13;2001606;29;45565;-61
2021/12/11 04:43:04;;;;;;;35.83;16.73;;;;;;;-0.75;95.55;100907.25;2001811;29;34569;-61
2021/12/11 04:44:16;;;;;;;39.47;19.98;;;;;;;-0.69;95.99;100912.66;2001299;29;44607;-61
2021/12/11 04:45:43;;;;;;;41.63;20.70;;;;;;;-0.66;96.33;100915.38;2001566;29;32431;-59
2021/12/11 04:46:45;;;;;;;31.15;15.85;;;;;;;-0.65;96.08;100915.38;1996445;29;44980;-61
2021/12/11 04:47:56;;;;;;;36.47;17.73;;;;;;;-0.64;95.90;100917.16;1994635;29;45374;-62
2021/12/11 04:50:21;;;;;;;39.25;19.45;;;;;;;-0.62;96.28;100928.59;1994058;29;44612;-61
2021/12/11 04:51:33;;;;;;;32.85;16.17;;;;;;;-0.60;96.35;100920.75;1994745;29;24203;-61
2021/12/11 04:52:47;;;;;;;34.28;17.00;;;;;;;-0.57;96.32;100928.72;1993893;29;45895;-61
2021/12/11 04:55:43;;;;;;;36.58;18.13;;;;;;;-0.52;96.29;100934.97;1993864;29;46467;-61
2021/12/11 05:01:00;;;;;;;34.75;17.30;;;;;;;-0.46;96.75;100934.22;1989196;29;45045;-62
2021/12/11 05:10:18;;;;;;;35.53;19.23;;;;;;;-0.45;95.93;100941.22;1993328;29;43767;-62
2021/12/11 05:11:31;;;;;;;42.90;20.85;;;;;;;-0.46;96.49;100948.25;1993508;29;43196;-62
2021/12/11 05:12:36;;;;;;;42.95;21.90;;;;;;;-0.48;96.10;100949.06;1993571;29;46132;-62
2021/12/11 05:13:40;;;;;;;44.58;22.50;;;;;;;-0.48;95.91;100943.81;1993962;29;43366;-62
2021/12/11 05:14:45;;;;;;;51.08;23.77;;;;;;;-0.42;96.72;100941.31;1993386;29;34810;-61
2021/12/11 05:15:51;;;;;;;54.03;24.92;;;;;;;-0.40;96.91;100948.38;1993466;29;45423;-61
2021/12/11 05:16:53;;;;;;;40.72;20.73;;;;;;;-0.50;96.09;100946.41;1993654;29;45565;-61
2021/12/11 05:17:57;;;;;;;48.88;24.42;;;;;;;-0.52;96.06;100956.00;1994519;29;46502;-62
2021/12/11 05:18:58;;;;;;;42.28;21.42;;;;;;;-0.54;96.34;100943.66;2001155;29;44278;-62
2021/12/11 05:20:00;;;;;;;39.17;20.00;;;;;;;-0.59;96.09;100952.34;2000376;29;45657;-62
2021/12/11 05:21:09;;;;;;;41.83;21.00;;;;;;;-0.62;95.72;100952.28;2001037;29;44449;-61
2021/12/11 05:22:13;;;;;;;37.40;20.17;;;;;;;-0.65;95.52;100951.31;2000609;29;44136;-62
2021/12/11 05:23:16;;;;;;;43.22;20.25;;;;;;;-0.70;95.95;100953.84;1999982;29;37633;-62
2021/12/11 05:24:18;;;;;;;45.67;23.33;;;;;;;-0.71;96.41;100954.69;1993837;29;43351;-61
2021/12/11 05:25:20;;;;;;;39.45;19.33;;;;;;;-0.72;95.96;100952.03;2001763;29;44291;-62
2021/12/11 05:26:22;;;;;;;36.58;18.67;;;;;;;-0.74;96.21;100953.72;2000271;29;45318;-62
2021/12/11 05:27:25;;;;;;;36.35;18.55;;;;;;;-0.77;96.32;100951.94;2000932;29;44413;-62
2021/12/11 05:28:27;;;;;;;38.70;19.63;;;;;;;-0.81;96.31;100950.97;2001658;29;36180;-62
2021/12/11 05:29:30;;;;;;;44.15;22.38;;;;;;;-0.81;95.66;100965.84;2001494;29;45637;-62
2021/12/11 05:30:41;;;;;;;46.55;21.90;;;;;;;-0.87;96.49;100961.31;2000619;29;45479;-61
2021/12/11 05:31:43;;;;;;;42.95;22.02;;;;;;;-0.88;95.93;100966.53;2001191;29;31033;-62
2021/12/11 05:32:47;;;;;;;43.67;21.75;;;;;;;-0.94;95.62;100962.03;2001197;29;44983;-61
2021/12/11 05:33:49;;;;;;;45.13;22.10;;;;;;;-0.96;95.83;100977.75;2001269;29;44077;-61
2021/12/11 05:34:53;;;;;;;48.65;23.63;;;;;;;-0.93;96.09;100979.59;2000852;29;46060;-62
2021/12/11 05:35:55;;;;;;;47.65;23.45;;;;;;;-0.94;96.51;100977.78;1993215;29;44196;-61
2021/12/11 05:36:57;;;;;;;45.38;22.60;;;;;;;-0.92;96.56;100986.59;1993046;29;45145;-62